METAR Data
IDs: Format: Raw Decoded Include TAF

Data at: 0901 UTC 26 Jan 2020

KEGV 260855Z AUTO 30006KT 2 1/2SM -SN OVC006 M02/M02 A2980 RMK AO2 T10161018
KEGV 260835Z AUTO 29006KT 4SM -SN OVC008 M01/M02 A2980 RMK AO2 T10151017
KEGV 260815Z AUTO 30008KT 4SM -SN OVC008 M02/M02 A2979 RMK AO2 T10161019
KEGV 260755Z AUTO 31005KT 7SM -SN BKN008 OVC025 M02/M02 A2979 RMK AO2 T10161019
KEGV 260735Z AUTO 29004KT 3SM -SN SCT008 OVC025 M02/M02 A2979 RMK AO2 T10171020
KEGV 260715Z AUTO 29005KT 5SM -SN BKN010 OVC025 M02/M02 A2979 RMK AO2 T10171020
KEGV 260655Z AUTO 29005KT 5SM -SN BKN010 OVC015 M02/M02 A2979 RMK AO2 T10171020
KEGV 260635Z AUTO 31004KT 5SM -SN BKN013 OVC070 M02/M02 A2979 RMK AO2 T10181020
KEGV 260615Z AUTO 31004KT 4SM -SN BKN013 OVC070 M02/M02 A2979 RMK AO2 T10181020
KEGV 260555Z AUTO 31004KT 4SM -SN OVC013 M02/M02 A2980 RMK AO2 T10171022 11008 21025 400071025
KEGV 260535Z AUTO 32006KT 7SM -SN OVC011 M02/M02 A2980 RMK AO2 T10161023
KEGV 260515Z AUTO 32006KT 5SM -SN OVC011 M02/M02 A2981 RMK AO2 T10171020
KEGV 260455Z AUTO 32003KT 4SM -SN OVC011 M02/M02 A2980 RMK AO2 T10211022
KEGV 260435Z AUTO 32003KT 10SM -SN OVC011 M02/M02 A2980 RMK AO2 T10211025
KEGV 260415Z AUTO 31003KT 10SM BKN011 M02/M03 A2980 RMK AO2 T10231026
KEGV 260355Z AUTO 32004KT 10SM BKN011 M02/M03 A2979 RMK AO2 T10241026
KEGV 260335Z AUTO 32004KT 10SM -SN SCT011 M02/M02 A2979 RMK AO2 T10201025
KEGV 260315Z AUTO 32004KT 7SM SCT011 BKN018 M02/M03 A2979 RMK AO2 T10201026
KEGV 260255Z AUTO 33004KT 7SM -SN BKN011 OVC018 M02/M02 A2979 RMK AO2 T10171025
KEGV 260235Z AUTO 33004KT 7SM -SN SCT009 BKN018 OVC032 M02/M02 A2980 RMK AO2 T10161022
KEGV 260215Z AUTO 34006KT 4SM -SN SCT009 BKN018 OVC034 M01/M02 A2980 RMK AO2 T10151021
KEGV 260155Z AUTO 34006KT 10SM -SN SCT011 BKN018 OVC041 M01/M02 A2980 RMK AO2 T10151023
KEGV 260135Z AUTO 35007KT 10SM SCT010 OVC016 M01/M02 A2980 RMK AO2 T10131024
KEGV 260115Z AUTO 35005KT 4SM -SN SCT007 BKN012 OVC017 M01/M02 A2980 RMK AO2 T10121016
KEGV 260055Z AUTO 34008KT 1 1/2SM -SN OVC007 M01/M01 A2980 RMK AO2 T10111012
KEGV 260035Z AUTO 32004KT 2 1/2SM -SN OVC010 M01/M01 A2980 RMK AO2 T10101012
KEGV 260015Z AUTO 32007KT 2SM -SN OVC010 M01/M01 A2979 RMK AO2 T10101015
KEGV 252355Z AUTO 32008KT 2 1/2SM -SN BKN010 OVC018 M01/M01 A2979 RMK AO2 T10081015 10007 21008
KEGV 252335Z AUTO 32008KT 2 1/2SM -SN BKN006 OVC012 M01/M01 A2979 RMK AO2 T10061006
KEGV 252315Z AUTO 31004KT 1SM -SN OVC008 00/00 A2979 RMK AO2 T10051005
KEGV 252255Z AUTO 34006KT 3/4SM -SN OVC008 00/00 A2978 RMK AO2 T10031005
KEGV 252235Z AUTO 33006KT 1 3/4SM -SN OVC011 00/00 A2978 RMK AO2 T10011005
KEGV 252215Z AUTO 34009KT 4SM -SN OVC011 00/M01 A2978 RMK AO2 T00001008
KEGV 252155Z AUTO 34007KT 10SM BKN008 OVC013 00/M01 A2978 RMK AO2 T00001007
KEGV 252135Z AUTO 34005KT 3SM -SN BKN010 BKN018 OVC055 00/M01 A2977 RMK AO2 T00001006
KEGV 252115Z AUTO 34007KT 10SM SCT012 BKN045 OVC055 00/M01 A2977 RMK AO2 T00011011
KEGV 252055Z AUTO 33008KT 10SM SCT014 BKN027 OVC043 00/M01 A2977 RMK AO2 T00031013
KEGV 252035Z AUTO 35008KT 10SM BKN013 OVC027 01/M01 A2977 RMK AO2 T00051010
KEGV 252015Z AUTO 34008KT 5SM BR BKN010 OVC014 00/M01 A2976 RMK AO2 T00031006
KEGV 251955Z AUTO 35008KT 10SM BKN012 BKN016 OVC021 01/M01 A2976 RMK AO2 T00051010
KEGV 251935Z AUTO 34009KT 10SM BKN012 BKN016 OVC039 01/M01 A2976 RMK AO2 T00051007
KEGV 251915Z AUTO 34010KT 10SM BKN012 OVC022 01/00 A2977 RMK AO2 T00061005
KEGV 251855Z AUTO 33009KT 10SM BKN010 BKN017 OVC022 01/00 A2977 RMK AO2 T00061002
KEGV 251835Z AUTO 33008KT 4SM BR BKN010 OVC013 00/00 A2977 RMK AO2 T00040000
KEGV 251815Z AUTO 33010KT 4SM -SN BKN010 OVC015 01/00 A2978 RMK AO2 T00050000
KEGV 251755Z AUTO 34007KT 5SM -SN SCT008 OVC013 00/00 A2978 RMK AO2 T00031002 10003 21011
KEGV 251735Z AUTO 35006KT 2SM -SN OVC007 00/00 A2978 RMK AO2 T00020000
KEGV 251715Z AUTO 36003KT 1 1/2SM -SN OVC007 00/00 A2979 RMK AO2 T00020000
KEGV 251655Z AUTO 01004KT 4SM -SN OVC009 00/00 A2979 RMK AO2 T00021002
KEGV 251635Z AUTO 36004KT 7SM OVC009 00/00 A2979 RMK AO2 T00001003
KEGV 251615Z AUTO 35005KT 7SM -SN OVC009 00/00 A2980 RMK AO2 T00001005
KEGV 251555Z AUTO 35005KT 5SM -SN OVC009 00/M01 A2979 RMK AO2 T10011007
KEGV 251535Z AUTO 35005KT 3SM -SN BKN009 BKN020 OVC043 00/M01 A2979 RMK AO2 T10021007
KEGV 251515Z AUTO 35004KT 3SM -SN BKN007 BKN020 OVC043 00/M01 A2979 RMK AO2 T10051008
KEGV 251455Z AUTO 36004KT 1 1/2SM -SN OVC009 M01/M01 A2979 RMK AO2 T10081010
KEGV 251435Z AUTO 36004KT 1 1/2SM -SN SCT006 OVC011 M01/M01 A2979 RMK AO2 T10101010
KEGV 251415Z AUTO 36004KT 1 1/4SM -SN BKN007 OVC014 M01/M01 A2979 RMK AO2 T10101010
KEGV 251355Z AUTO 36004KT 1SM -SN OVC008 M01/M01 A2979 RMK AO2 T10101010
KEGV 251335Z AUTO 36004KT 1 3/4SM -SN OVC008 M01/M01 A2979 RMK AO2 VIS 1 1/4V2 1/2 T10111012
KEGV 251315Z AUTO 35006KT 3SM -SN SCT006 SCT010 OVC018 M01/M01 A2978 RMK AO2 T10101011
KEGV 251255Z AUTO 01006KT 2 1/2SM -SN SCT008 OVC016 M01/M01 A2978 RMK AO2 T10111012
KEGV 251235Z AUTO 01005KT 2SM -SN BKN006 OVC014 M01/M01 A2978 RMK AO2 T10111011
KEGV 251215Z AUTO 36006KT 2SM -SN BKN006 OVC012 M01/M01 A2977 RMK AO2 T10111011
KEGV 251155Z AUTO 36005KT 1 3/4SM -SN SCT004 OVC010 M01/M01 A2977 RMK AO2 T10111011 11005 21012
KEGV 251135Z AUTO 36005KT 1 3/4SM -SN OVC010 M01/M01 A2977 RMK AO2 T10111011
KEGV 251115Z AUTO 36004KT 2SM -SN OVC010 M01/M01 A2977 RMK AO2 T10121012
KEGV 251055Z AUTO 36003KT 2 1/2SM -SN SCT006 BKN011 OVC018 M01/M01 A2977 RMK AO2 T10121012
KEGV 251035Z AUTO 02004KT 1 3/4SM -SN SCT009 OVC018 M01/M01 A2977 RMK AO2 T10121012
KEGV 251015Z AUTO 03005KT 2SM -SN OVC009 M01/M01 A2976 RMK AO2 T10121012
KEGV 250955Z AUTO 03005KT 1 1/4SM -SN OVC011 M01/M01 A2977 RMK AO2 T10111012
KEGV 250935Z AUTO 03005KT 4SM -SN OVC011 M01/M01 A2978 RMK AO2 T10101012
KEGV 250915Z AUTO 03006KT 10SM -SN OVC011 M01/M01 A2978 RMK AO2 T10101012
KEGV 250855Z AUTO 03007KT 5SM -SN OVC009 M01/M01 A2978 RMK AO2 T10101012
KEGV 250835Z AUTO 02006KT 4SM -SN BKN009 OVC013 M01/M01 A2979 RMK AO2 T10091010
KEGV 250815Z AUTO 02005KT 4SM -SN OVC007 M01/M01 A2979 RMK AO2 T10091010
KEGV 250755Z AUTO 02004KT 7SM UP BKN007 BKN012 OVC018 M01/M01 A2979 RMK AO2 T10101010
KEGV 250735Z AUTO 02005KT 2 1/2SM -SN BKN005 OVC016 M01/M01 A2980 RMK AO2 T10081008
KEGV 250715Z AUTO 01005KT 2 1/2SM -SN BKN005 OVC017 M01/M01 A2980 RMK AO2 T10071007
KEGV 250655Z AUTO 01005KT 2SM -SN BKN007 OVC011 M01/M01 A2981 RMK AO2 T10071007
KEGV 250635Z AUTO 02005KT 1 1/4SM -SN OVC009 M01/M01 A2981 RMK AO2 T10061006
KEGV 250615Z AUTO 02004KT 1 1/2SM -SN OVC007 00/00 A2982 RMK AO2 T10051005
KEGV 250555Z AUTO 03005KT 2SM -SN OVC007 00/M01 A2982 RMK AO2 T10051006 10000 21005 400001017
KEGV 250535Z AUTO 02005KT 5SM -SN OVC009 00/00 A2982 RMK AO2 T10051005
KEGV 250515Z AUTO 03006KT 3SM -SN BKN009 OVC014 00/00 A2983 RMK AO2 T10051005
KEGV 250455Z AUTO 04007KT 2SM -SN OVC009 00/00 A2983 RMK AO2 T10051005
KEGV 250435Z AUTO 03006KT 5SM -SN OVC009 00/00 A2983 RMK AO2 T10051005
KEGV 250415Z AUTO 03006KT 2 1/2SM -SN BKN007 OVC011 00/00 A2984 RMK AO2 T10031005
KEGV 250355Z AUTO 03005KT 2 1/2SM -SN OVC007 00/00 A2984 RMK AO2 T10031003
KEGV 250335Z AUTO 04006KT 7SM -SN OVC007 00/00 A2984 RMK AO2 T10021003
KEGV 250315Z AUTO 05007KT 7SM OVC005 00/00 A2985 RMK AO2 T10021002
KEGV 250255Z AUTO 04008KT 5SM BR OVC005 00/00 A2985 RMK AO2 T10021002
KEGV 250235Z AUTO 05006KT 5SM BR OVC005 00/00 A2987 RMK AO2 T10011001
KEGV 250215Z AUTO 05008KT 7SM OVC005 00/00 A2987 RMK AO2 T00000000
KEGV 250155Z AUTO 04005KT 5SM -SN OVC005 00/00 A2988 RMK AO2 T00000000
KEGV 250135Z AUTO 04006KT 5SM -SN OVC003 00/00 A2989 RMK AO2 T00000000
KEGV 250115Z AUTO 04006KT 5SM -SN OVC003 00/00 A2989 RMK AO2 T00000000
KEGV 250055Z AUTO 05006KT 4SM BR OVC003 00/00 A2989 RMK AO2 T00000000
KEGV 250035Z AUTO 04006KT 3SM BR OVC005 00/00 A2990 RMK AO2 T00000000
KEGV 250015Z AUTO 04008KT 3SM -SN OVC005 00/00 A2989 RMK AO2 T00000000
KEGV 242355Z AUTO 04005KT 7SM OVC005 00/00 A2990 RMK AO2 T00001001 10000 21001
KEGV 242335Z AUTO 05006KT 10SM OVC005 00/00 A2990 RMK AO2 T00001002
KEGV 242315Z AUTO 05005KT 7SM OVC005 00/00 A2990 RMK AO2 T00001001
KEGV 242255Z AUTO 05006KT 7SM OVC007 00/00 A2990 RMK AO2 T00001001
KEGV 242235Z AUTO 04005KT 4SM -SN OVC007 00/00 A2990 RMK AO2 T00001001
KEGV 242215Z AUTO 07007KT 1 3/4SM -SN OVC007 00/00 A2990 RMK AO2 VIS 1 1/4V3 T00001002
KEGV 242155Z AUTO 06007KT 10SM OVC007 00/00 A2991 RMK AO2 T00001003
KEGV 242135Z AUTO 06006KT 10SM OVC007 00/00 A2991 RMK AO2 T00001003
KEGV 242115Z AUTO 05005KT 5SM -SN OVC007 00/00 A2991 RMK AO2 T00001002